sensor_id;sensor_type;location;lat;lon;timestamp;pressure;altitude;pressure_sealevel;temperature;humidity
69239;BME280;56349;51.816;-0.026;2023-04-05T00:02:22;101854.91;;;21.23;31.23
69239;BME280;56349;51.816;-0.026;2023-04-05T00:04:46;101856.96;;;20.90;31.34
69239;BME280;56349;51.816;-0.026;2023-04-05T00:07:12;101857.17;;;20.98;31.48
69239;BME280;56349;51.816;-0.026;2023-04-05T00:09:38;101847.91;;;20.85;31.60
69239;BME280;56349;51.816;-0.026;2023-04-05T00:12:05;101842.35;;;20.54;31.68
69239;BME280;56349;51.816;-0.026;2023-04-05T00:14:29;101845.23;;;20.94;31.74
69239;BME280;56349;51.816;-0.026;2023-04-05T00:16:55;101845.07;;;20.56;31.86
69239;BME280;56349;51.816;-0.026;2023-04-05T00:19:21;101841.74;;;20.75;31.99
69239;BME280;56349;51.816;-0.026;2023-04-05T00:21:47;101838.61;;;20.66;32.05
69239;BME280;56349;51.816;-0.026;2023-04-05T00:24:13;101834.33;;;20.57;32.14
69239;BME280;56349;51.816;-0.026;2023-04-05T00:26:40;101832.86;;;20.50;32.21
69239;BME280;56349;51.816;-0.026;2023-04-05T00:29:06;101827.51;;;20.43;32.26
69239;BME280;56349;51.816;-0.026;2023-04-05T00:31:31;101820.96;;;20.33;32.41
69239;BME280;56349;51.816;-0.026;2023-04-05T00:33:57;101818.54;;;20.26;32.50
69239;BME280;56349;51.816;-0.026;2023-04-05T00:36:23;101820.03;;;20.21;32.54
69239;BME280;56349;51.816;-0.026;2023-04-05T00:38:49;101825.00;;;20.13;32.59
69239;BME280;56349;51.816;-0.026;2023-04-05T00:41:15;101828.15;;;20.29;32.70
69239;BME280;56349;51.816;-0.026;2023-04-05T00:43:42;101828.71;;;20.02;32.84
69239;BME280;56349;51.816;-0.026;2023-04-05T00:46:07;101821.89;;;19.97;32.86
69239;BME280;56349;51.816;-0.026;2023-04-05T00:48:33;101818.01;;;19.92;33.02
69239;BME280;56349;51.816;-0.026;2023-04-05T00:50:58;101817.11;;;19.86;33.17
69239;BME280;56349;51.816;-0.026;2023-04-05T00:53:23;101815.90;;;20.25;33.25
69239;BME280;56349;51.816;-0.026;2023-04-05T00:55:50;101816.83;;;19.99;33.35
69239;BME280;56349;51.816;-0.026;2023-04-05T00:58:15;101808.69;;;19.94;33.45
69239;BME280;56349;51.816;-0.026;2023-04-05T01:00:41;101801.35;;;19.87;33.59
69239;BME280;56349;51.816;-0.026;2023-04-05T01:03:06;101800.29;;;19.81;33.60
69239;BME280;56349;51.816;-0.026;2023-04-05T01:05:37;101797.83;;;19.54;33.77
69239;BME280;56349;51.816;-0.026;2023-04-05T01:08:01;101796.89;;;19.74;33.81
69239;BME280;56349;51.816;-0.026;2023-04-05T01:10:28;101796.67;;;19.71;33.90
69239;BME280;56349;51.816;-0.026;2023-04-05T01:12:48;101794.33;;;19.46;33.94
69239;BME280;56349;51.816;-0.026;2023-04-05T01:15:13;101790.35;;;19.88;33.99
69239;BME280;56349;51.816;-0.026;2023-04-05T01:17:39;101789.97;;;19.82;34.06
69239;BME280;56349;51.816;-0.026;2023-04-05T01:20:06;101788.16;;;19.79;34.07
69239;BME280;56349;51.816;-0.026;2023-04-05T01:27:23;101778.61;;;19.65;34.23
69239;BME280;56349;51.816;-0.026;2023-04-05T01:29:50;101777.15;;;19.60;34.35
69239;BME280;56349;51.816;-0.026;2023-04-05T01:32:20;101769.77;;;19.55;34.46
69239;BME280;56349;51.816;-0.026;2023-04-05T01:34:42;101765.44;;;19.30;34.48
69239;BME280;56349;51.816;-0.026;2023-04-05T01:37:06;101759.91;;;19.48;34.52
69239;BME280;56349;51.816;-0.026;2023-04-05T01:39:29;101751.81;;;19.46;34.56
69239;BME280;56349;51.816;-0.026;2023-04-05T01:41:58;101745.91;;;19.43;34.59
69239;BME280;56349;51.816;-0.026;2023-04-05T01:44:19;101741.85;;;19.40;34.65
69239;BME280;56349;51.816;-0.026;2023-04-05T01:46:45;101738.94;;;19.14;34.69
69239;BME280;56349;51.816;-0.026;2023-04-05T01:49:11;101736.86;;;19.33;34.77
69239;BME280;56349;51.816;-0.026;2023-04-05T01:51:37;101736.72;;;19.29;34.81
69239;BME280;56349;51.816;-0.026;2023-04-05T01:54:03;101736.35;;;19.53;34.86
69239;BME280;56349;51.816;-0.026;2023-04-05T01:56:28;101739.74;;;19.49;34.89
69239;BME280;56349;51.816;-0.026;2023-04-05T01:58:54;101740.14;;;19.19;34.95
69239;BME280;56349;51.816;-0.026;2023-04-05T02:01:20;101740.39;;;18.95;35.00
69239;BME280;56349;51.816;-0.026;2023-04-05T02:03:46;101738.57;;;19.14;35.06
69239;BME280;56349;51.816;-0.026;2023-04-05T02:06:12;101734.80;;;19.12;35.08
69239;BME280;56349;51.816;-0.026;2023-04-05T02:08:38;101732.01;;;19.36;35.11
69239;BME280;56349;51.816;-0.026;2023-04-05T02:11:04;101729.96;;;19.07;35.14
69239;BME280;56349;51.816;-0.026;2023-04-05T02:13:30;101727.65;;;19.32;35.16
69239;BME280;56349;51.816;-0.026;2023-04-05T02:15:56;101724.03;;;19.02;35.23
69239;BME280;56349;51.816;-0.026;2023-04-05T02:18:22;101720.95;;;19.25;35.28
69239;BME280;56349;51.816;-0.026;2023-04-05T02:20:49;101723.61;;;18.98;35.30
69239;BME280;56349;51.816;-0.026;2023-04-05T02:23:13;101723.00;;;19.22;35.33
69239;BME280;56349;51.816;-0.026;2023-04-05T02:25:39;101716.78;;;18.91;35.37
69239;BME280;56349;51.816;-0.026;2023-04-05T02:28:05;101716.04;;;18.88;35.39
69239;BME280;56349;51.816;-0.026;2023-04-05T02:30:32;101714.34;;;19.12;35.43
69239;BME280;56349;51.816;-0.026;2023-04-05T02:32:57;101709.23;;;18.80;35.50
69239;BME280;56349;51.816;-0.026;2023-04-05T02:35:23;101707.28;;;19.25;35.56
69239;BME280;56349;51.816;-0.026;2023-04-05T02:37:50;101704.43;;;19.00;35.61
69239;BME280;56349;51.816;-0.026;2023-04-05T02:40:14;101705.49;;;18.97;35.63
69239;BME280;56349;51.816;-0.026;2023-04-05T02:42:40;101705.76;;;18.93;35.68
69239;BME280;56349;51.816;-0.026;2023-04-05T02:45:07;101707.47;;;18.63;35.74
69239;BME280;56349;51.816;-0.026;2023-04-05T02:47:32;101709.21;;;19.11;35.76
69239;BME280;56349;51.816;-0.026;2023-04-05T02:49:58;101708.50;;;18.85;35.79
69239;BME280;56349;51.816;-0.026;2023-04-05T02:52:24;101708.91;;;18.53;35.83
69239;BME280;56349;51.816;-0.026;2023-04-05T02:54:50;101708.31;;;18.98;35.88
69239;BME280;56349;51.816;-0.026;2023-04-05T02:57:16;101705.26;;;18.71;35.93
69239;BME280;56349;51.816;-0.026;2023-04-05T02:59:41;101705.23;;;18.91;35.98
69239;BME280;56349;51.816;-0.026;2023-04-05T03:02:08;101706.71;;;18.88;36.02
69239;BME280;56349;51.816;-0.026;2023-04-05T03:04:33;101703.31;;;18.63;36.03
69239;BME280;56349;51.816;-0.026;2023-04-05T03:07:00;101698.74;;;18.33;36.09
69239;BME280;56349;51.816;-0.026;2023-04-05T03:09:24;101697.18;;;18.56;36.12
69239;BME280;56349;51.816;-0.026;2023-04-05T03:11:50;101694.99;;;18.77;36.12
69239;BME280;56349;51.816;-0.026;2023-04-05T03:14:16;101694.23;;;18.75;36.17
69239;BME280;56349;51.816;-0.026;2023-04-05T03:16:42;101695.34;;;18.74;36.17
69239;BME280;56349;51.816;-0.026;2023-04-05T03:19:08;101695.74;;;18.72;36.19
69239;BME280;56349;51.816;-0.026;2023-04-05T03:21:34;101691.66;;;18.48;36.21
69239;BME280;56349;51.816;-0.026;2023-04-05T03:24:00;101692.08;;;18.68;36.23
69239;BME280;56349;51.816;-0.026;2023-04-05T03:26:26;101693.44;;;18.64;36.26
69239;BME280;56349;51.816;-0.026;2023-04-05T03:28:52;101693.62;;;18.60;36.33
69239;BME280;56349;51.816;-0.026;2023-04-05T03:31:18;101693.11;;;18.57;36.41
69239;BME280;56349;51.816;-0.026;2023-04-05T03:33:43;101688.55;;;18.59;36.45
69239;BME280;56349;51.816;-0.026;2023-04-05T03:36:10;101683.41;;;18.43;36.47
69239;BME280;56349;51.816;-0.026;2023-04-05T03:38:34;101681.51;;;18.79;36.40
69239;BME280;56349;51.816;-0.026;2023-04-05T03:41:01;101681.79;;;18.91;36.33
69239;BME280;56349;51.816;-0.026;2023-04-05T03:43:26;101680.86;;;18.61;36.20
69239;BME280;56349;51.816;-0.026;2023-04-05T03:45:52;101681.28;;;19.08;36.21
69239;BME280;56349;51.816;-0.026;2023-04-05T03:48:17;101674.27;;;19.00;36.01
69239;BME280;56349;51.816;-0.026;2023-04-05T03:50:43;101671.32;;;18.99;35.70
69239;BME280;56349;51.816;-0.026;2023-04-05T03:53:09;101668.68;;;19.40;35.39
69239;BME280;56349;51.816;-0.026;2023-04-05T03:55:35;101667.51;;;19.57;35.08
69239;BME280;56349;51.816;-0.026;2023-04-05T03:58:01;101662.91;;;19.49;34.80
69239;BME280;56349;51.816;-0.026;2023-04-05T04:00:26;101666.70;;;19.59;34.58
69239;BME280;56349;51.816;-0.026;2023-04-05T04:02:52;101662.83;;;19.43;34.41
69239;BME280;56349;51.816;-0.026;2023-04-05T04:05:19;101661.94;;;19.69;34.25
69239;BME280;56349;51.816;-0.026;2023-04-05T04:07:44;101658.73;;;19.49;34.11
69239;BME280;56349;51.816;-0.026;2023-04-05T04:10:11;101658.56;;;19.70;34.02
69239;BME280;56349;51.816;-0.026;2023-04-05T04:12:35;101657.75;;;19.68;33.94
69239;BME280;56349;51.816;-0.026;2023-04-05T04:15:00;101655.75;;;19.43;33.88
69239;BME280;56349;51.816;-0.026;2023-04-05T04:17:26;101660.78;;;19.40;33.84
69239;BME280;56349;51.816;-0.026;2023-04-05T04:19:51;101668.36;;;19.58;33.81
69239;BME280;56349;51.816;-0.026;2023-04-05T04:22:17;101667.97;;;19.29;33.81
69239;BME280;56349;51.816;-0.026;2023-04-05T04:24:43;101669.14;;;19.21;33.84
69239;BME280;56349;51.816;-0.026;2023-04-05T04:27:09;101669.16;;;19.59;33.84
69239;BME280;56349;51.816;-0.026;2023-04-05T04:29:35;101667.45;;;19.29;33.88
69239;BME280;56349;51.816;-0.026;2023-04-05T04:32:00;101666.08;;;19.44;33.90
69239;BME280;56349;51.816;-0.026;2023-04-05T04:34:26;101667.92;;;19.35;33.96
69239;BME280;56349;51.816;-0.026;2023-04-05T04:36:52;101669.33;;;19.27;34.01
69239;BME280;56349;51.816;-0.026;2023-04-05T04:39:18;101672.02;;;19.18;34.08
69239;BME280;56349;51.816;-0.026;2023-04-05T04:41:44;101669.27;;;19.10;34.15
69239;BME280;56349;51.816;-0.026;2023-04-05T04:44:09;101668.62;;;19.03;34.20
69239;BME280;56349;51.816;-0.026;2023-04-05T04:46:35;101668.08;;;18.97;34.22
69239;BME280;56349;51.816;-0.026;2023-04-05T04:49:01;101673.88;;;18.89;34.27
69239;BME280;56349;51.816;-0.026;2023-04-05T04:51:27;101673.18;;;18.80;34.35
69239;BME280;56349;51.816;-0.026;2023-04-05T04:53:53;101669.88;;;18.96;34.45
69239;BME280;56349;51.816;-0.026;2023-04-05T04:56:19;101668.51;;;19.11;34.58
69239;BME280;56349;51.816;-0.026;2023-04-05T04:58:45;101669.62;;;18.83;34.81
69239;BME280;56349;51.816;-0.026;2023-04-05T05:01:11;101666.12;;;18.52;34.96
69239;BME280;56349;51.816;-0.026;2023-04-05T05:03:37;101665.26;;;18.75;35.07
69239;BME280;56349;51.816;-0.026;2023-04-05T05:06:03;101665.52;;;18.75;35.13
69239;BME280;56349;51.816;-0.026;2023-04-05T05:08:28;101664.23;;;18.98;35.31
69239;BME280;56349;51.816;-0.026;2023-04-05T05:10:54;101664.33;;;18.99;35.44
69239;BME280;56349;51.816;-0.026;2023-04-05T05:13:20;101665.67;;;18.78;35.61
69239;BME280;56349;51.816;-0.026;2023-04-05T05:15:46;101668.33;;;18.81;35.75
69239;BME280;56349;51.816;-0.026;2023-04-05T05:18:11;101667.11;;;19.08;35.89
69239;BME280;56349;51.816;-0.026;2023-04-05T05:20:37;101665.45;;;18.66;36.02
69239;BME280;56349;51.816;-0.026;2023-04-05T05:23:03;101663.56;;;18.98;36.11
69239;BME280;56349;51.816;-0.026;2023-04-05T05:25:29;101663.58;;;19.02;36.35
69239;BME280;56349;51.816;-0.026;2023-04-05T05:27:55;101665.22;;;18.78;36.50
69239;BME280;56349;51.816;-0.026;2023-04-05T05:30:21;101661.66;;;18.80;36.71
69239;BME280;56349;51.816;-0.026;2023-04-05T05:32:47;101658.42;;;18.85;36.80
69239;BME280;56349;51.816;-0.026;2023-04-05T05:35:13;101658.45;;;18.93;36.92
69239;BME280;56349;51.816;-0.026;2023-04-05T05:37:39;101662.85;;;19.45;37.05
69239;BME280;56349;51.816;-0.026;2023-04-05T05:40:06;101662.53;;;19.28;37.17
69239;BME280;56349;51.816;-0.026;2023-04-05T05:42:31;101661.48;;;19.33;37.24
69239;BME280;56349;51.816;-0.026;2023-04-05T05:44:58;101661.66;;;19.39;37.34
69239;BME280;56349;51.816;-0.026;2023-04-05T05:47:22;101663.69;;;19.19;37.39
69239;BME280;56349;51.816;-0.026;2023-04-05T05:49:48;101666.38;;;19.25;37.48
69239;BME280;56349;51.816;-0.026;2023-04-05T05:52:14;101661.00;;;19.30;37.58
69239;BME280;56349;51.816;-0.026;2023-04-05T05:54:40;101658.84;;;19.34;37.56
69239;BME280;56349;51.816;-0.026;2023-04-05T05:57:06;101657.03;;;19.40;37.63
69239;BME280;56349;51.816;-0.026;2023-04-05T05:59:32;101657.59;;;19.47;37.63
69239;BME280;56349;51.816;-0.026;2023-04-05T06:01:58;101660.28;;;19.51;37.68
69239;BME280;56349;51.816;-0.026;2023-04-05T06:04:23;101660.20;;;19.57;37.69
69239;BME280;56349;51.816;-0.026;2023-04-05T06:06:49;101661.46;;;19.62;37.65
69239;BME280;56349;51.816;-0.026;2023-04-05T06:09:15;101659.94;;;19.66;37.64
69239;BME280;56349;51.816;-0.026;2023-04-05T06:11:40;101660.41;;;19.71;37.61
69239;BME280;56349;51.816;-0.026;2023-04-05T06:14:06;101656.30;;;20.03;37.59
69239;BME280;56349;51.816;-0.026;2023-04-05T06:16:31;101649.94;;;19.80;37.55
69239;BME280;56349;51.816;-0.026;2023-04-05T06:18:57;101647.86;;;19.85;37.45
69239;BME280;56349;51.816;-0.026;2023-04-05T06:21:23;101647.40;;;19.66;37.40
69239;BME280;56349;51.816;-0.026;2023-04-05T06:23:49;101648.97;;;19.68;37.23
69239;BME280;56349;51.816;-0.026;2023-04-05T06:26:16;101648.25;;;19.71;36.97
69239;BME280;56349;51.816;-0.026;2023-04-05T06:28:41;101643.61;;;20.00;36.74
69239;BME280;56349;51.816;-0.026;2023-04-05T06:31:07;101642.28;;;20.05;36.68
69239;BME280;56349;51.816;-0.026;2023-04-05T06:33:33;101644.34;;;20.08;36.84
69239;BME280;56349;51.816;-0.026;2023-04-05T06:35:59;101642.49;;;20.14;37.04
69239;BME280;56349;51.816;-0.026;2023-04-05T06:38:25;101640.79;;;20.05;36.85
69239;BME280;56349;51.816;-0.026;2023-04-05T06:40:50;101635.45;;;19.98;36.83
69239;BME280;56349;51.816;-0.026;2023-04-05T06:43:16;101631.88;;;20.19;36.90
69239;BME280;56349;51.816;-0.026;2023-04-05T06:45:42;101636.06;;;20.47;36.69
69239;BME280;56349;51.816;-0.026;2023-04-05T06:48:08;101634.30;;;20.76;36.45
69239;BME280;56349;51.816;-0.026;2023-04-05T06:50:34;101633.41;;;20.79;36.12
69239;BME280;56349;51.816;-0.026;2023-04-05T06:53:01;101633.19;;;20.87;35.84
69239;BME280;56349;51.816;-0.026;2023-04-05T06:55:26;101632.39;;;21.18;35.54
69239;BME280;56349;51.816;-0.026;2023-04-05T06:57:52;101633.66;;;21.71;35.23
69239;BME280;56349;51.816;-0.026;2023-04-05T07:00:18;101628.73;;;21.59;34.91
69239;BME280;56349;51.816;-0.026;2023-04-05T07:02:43;101630.74;;;21.89;34.60
69239;BME280;56349;51.816;-0.026;2023-04-05T07:05:09;101627.43;;;21.94;34.25
69239;BME280;56349;51.816;-0.026;2023-04-05T07:07:38;101624.48;;;22.49;33.91
69239;BME280;56349;51.816;-0.026;2023-04-05T07:10:00;101626.93;;;22.52;33.57
69239;BME280;56349;51.816;-0.026;2023-04-05T07:12:25;101626.91;;;22.82;33.21
69239;BME280;56349;51.816;-0.026;2023-04-05T07:14:51;101627.15;;;22.88;32.87
69239;BME280;56349;51.816;-0.026;2023-04-05T07:17:17;101622.16;;;22.88;32.58
69239;BME280;56349;51.816;-0.026;2023-04-05T07:19:43;101619.59;;;23.11;32.24
69239;BME280;56349;51.816;-0.026;2023-04-05T07:22:09;101617.87;;;23.33;31.95
69239;BME280;56349;51.816;-0.026;2023-04-05T07:24:34;101615.55;;;23.50;31.70
69239;BME280;56349;51.816;-0.026;2023-04-05T07:26:59;101614.48;;;23.70;31.45
69239;BME280;56349;51.816;-0.026;2023-04-05T07:29:25;101613.44;;;23.88;31.21
69239;BME280;56349;51.816;-0.026;2023-04-05T07:31:51;101614.13;;;23.81;31.01
69239;BME280;56349;51.816;-0.026;2023-04-05T07:34:17;101611.17;;;23.76;30.79
69239;BME280;56349;51.816;-0.026;2023-04-05T07:36:43;101609.43;;;23.88;30.60
69239;BME280;56349;51.816;-0.026;2023-04-05T07:39:09;101611.72;;;24.06;30.31
69239;BME280;56349;51.816;-0.026;2023-04-05T07:41:35;101613.42;;;24.22;30.12
69239;BME280;56349;51.816;-0.026;2023-04-05T07:44:01;101614.14;;;24.31;30.02
69239;BME280;56349;51.816;-0.026;2023-04-05T07:46:27;101615.89;;;24.38;30.05
69239;BME280;56349;51.816;-0.026;2023-04-05T07:48:53;101616.59;;;24.46;30.08
69239;BME280;56349;51.816;-0.026;2023-04-05T07:51:19;101615.76;;;24.32;30.00
69239;BME280;56349;51.816;-0.026;2023-04-05T07:53:45;101613.66;;;24.43;28.19
69239;BME280;56349;51.816;-0.026;2023-04-05T07:56:11;101608.40;;;24.53;26.21
69239;BME280;56349;51.816;-0.026;2023-04-05T07:58:36;101609.50;;;24.39;26.73
69239;BME280;56349;51.816;-0.026;2023-04-05T08:01:02;101604.31;;;24.11;26.86
69239;BME280;56349;51.816;-0.026;2023-04-05T08:03:28;101602.83;;;24.11;27.01
69239;BME280;56349;51.816;-0.026;2023-04-05T08:05:52;101601.21;;;24.17;27.39
69239;BME280;56349;51.816;-0.026;2023-04-05T08:08:18;101601.46;;;24.50;27.57
69239;BME280;56349;51.816;-0.026;2023-04-05T08:10:44;101604.93;;;24.35;27.59
69239;BME280;56349;51.816;-0.026;2023-04-05T08:13:10;101607.23;;;24.75;27.63
69239;BME280;56349;51.816;-0.026;2023-04-05T08:15:36;101604.91;;;24.59;27.59
69239;BME280;56349;51.816;-0.026;2023-04-05T08:18:02;101604.81;;;24.69;27.53
69239;BME280;56349;51.816;-0.026;2023-04-05T08:20:28;101601.45;;;24.79;27.45
69239;BME280;56349;51.816;-0.026;2023-04-05T08:22:54;101601.33;;;24.65;27.37
69239;BME280;56349;51.816;-0.026;2023-04-05T08:25:20;101597.41;;;24.71;27.31
69239;BME280;56349;51.816;-0.026;2023-04-05T08:27:46;101593.79;;;24.75;27.24
69239;BME280;56349;51.816;-0.026;2023-04-05T08:30:12;101590.26;;;25.01;27.19
69239;BME280;56349;51.816;-0.026;2023-04-05T08:32:38;101585.65;;;24.81;27.12
69239;BME280;56349;51.816;-0.026;2023-04-05T08:35:04;101583.57;;;25.04;27.09
69239;BME280;56349;51.816;-0.026;2023-04-05T08:37:33;101584.17;;;24.83;27.05
69239;BME280;56349;51.816;-0.026;2023-04-05T08:39:55;101586.20;;;25.09;26.99
69239;BME280;56349;51.816;-0.026;2023-04-05T08:42:26;101583.78;;;24.89;26.93
69239;BME280;56349;51.816;-0.026;2023-04-05T08:44:51;101581.11;;;24.91;26.89
69239;BME280;56349;51.816;-0.026;2023-04-05T08:47:12;101579.98;;;25.12;26.86
69239;BME280;56349;51.816;-0.026;2023-04-05T08:49:41;101575.54;;;24.96;26.78
69239;BME280;56349;51.816;-0.026;2023-04-05T08:52:04;101578.29;;;24.99;26.70
69239;BME280;56349;51.816;-0.026;2023-04-05T08:54:29;101575.84;;;24.98;26.67
69239;BME280;56349;51.816;-0.026;2023-04-05T08:56:57;101576.29;;;25.00;26.62
69239;BME280;56349;51.816;-0.026;2023-04-05T08:59:20;101571.76;;;25.02;26.59
69239;BME280;56349;51.816;-0.026;2023-04-05T09:01:46;101572.22;;;25.03;26.57
69239;BME280;56349;51.816;-0.026;2023-04-05T09:04:15;101568.34;;;25.04;26.51
69239;BME280;56349;51.816;-0.026;2023-04-05T09:06:38;101565.64;;;25.02;26.52
69239;BME280;56349;51.816;-0.026;2023-04-05T09:09:06;101564.71;;;25.05;26.48
69239;BME280;56349;51.816;-0.026;2023-04-05T09:11:30;101565.54;;;25.09;26.25
69239;BME280;56349;51.816;-0.026;2023-04-05T09:13:55;101562.41;;;24.90;24.54
69239;BME280;56349;51.816;-0.026;2023-04-05T09:16:22;101557.70;;;25.04;24.25
69239;BME280;56349;51.816;-0.026;2023-04-05T09:18:47;101553.52;;;24.78;24.95
69239;BME280;56349;51.816;-0.026;2023-04-05T09:21:13;101552.75;;;24.79;25.46
69239;BME280;56349;51.816;-0.026;2023-04-05T09:28:39;101544.34;;;24.92;26.10
69239;BME280;56349;51.816;-0.026;2023-04-05T09:30:56;101541.50;;;25.00;26.11
69239;BME280;56349;51.816;-0.026;2023-04-05T09:33:24;101540.70;;;24.86;26.14
69239;BME280;56349;51.816;-0.026;2023-04-05T09:35:49;101542.13;;;24.89;26.12
69239;BME280;56349;51.816;-0.026;2023-04-05T09:38:12;101537.20;;;25.09;26.11
69239;BME280;56349;51.816;-0.026;2023-04-05T09:40:40;101537.33;;;24.94;26.23
69239;BME280;56349;51.816;-0.026;2023-04-05T09:43:03;101535.08;;;25.03;26.30
69239;BME280;56349;51.816;-0.026;2023-04-05T09:45:30;101528.80;;;24.88;26.42
69239;BME280;56349;51.816;-0.026;2023-04-05T09:47:57;101525.84;;;24.50;26.57
69239;BME280;56349;51.816;-0.026;2023-04-05T09:50:20;101522.73;;;24.55;26.66
69239;BME280;56349;51.816;-0.026;2023-04-05T09:52:46;101522.48;;;24.60;26.72
69239;BME280;56349;51.816;-0.026;2023-04-05T09:55:12;101524.74;;;24.38;26.85
69239;BME280;56349;51.816;-0.026;2023-04-05T09:57:38;101525.61;;;24.11;27.03
69239;BME280;56349;51.816;-0.026;2023-04-05T10:00:05;101523.48;;;24.30;27.17
69239;BME280;56349;51.816;-0.026;2023-04-05T10:02:34;101520.64;;;24.03;27.35
69239;BME280;56349;51.816;-0.026;2023-04-05T10:04:54;101518.04;;;23.54;27.57
69239;BME280;56349;51.816;-0.026;2023-04-05T10:07:20;101520.92;;;23.50;27.78
69239;BME280;56349;51.816;-0.026;2023-04-05T10:09:46;101520.19;;;23.28;27.99
69239;BME280;56349;51.816;-0.026;2023-04-05T10:12:17;101518.75;;;23.32;28.18
69239;BME280;56349;51.816;-0.026;2023-04-05T10:14:37;101514.11;;;23.32;28.35
69239;BME280;56349;51.816;-0.026;2023-04-05T10:17:08;101518.64;;;23.12;28.54
69239;BME280;56349;51.816;-0.026;2023-04-05T10:19:33;101522.01;;;22.91;28.74
69239;BME280;56349;51.816;-0.026;2023-04-05T10:21:54;101516.28;;;22.52;28.87
69239;BME280;56349;51.816;-0.026;2023-04-05T10:24:28;101518.15;;;22.55;29.07
69239;BME280;56349;51.816;-0.026;2023-04-05T10:26:51;101519.12;;;22.38;29.24
69239;BME280;56349;51.816;-0.026;2023-04-05T10:29:14;101518.40;;;22.18;29.44
69239;BME280;56349;51.816;-0.026;2023-04-05T10:31:44;101517.18;;;22.30;29.58
69239;BME280;56349;51.816;-0.026;2023-04-05T10:34:04;101515.82;;;22.15;29.75
69239;BME280;56349;51.816;-0.026;2023-04-05T10:36:34;101512.64;;;22.00;29.92
69239;BME280;56349;51.816;-0.026;2023-04-05T10:39:00;101513.22;;;22.07;30.07
69239;BME280;56349;51.816;-0.026;2023-04-05T10:41:18;101511.09;;;21.92;30.24
69239;BME280;56349;51.816;-0.026;2023-04-05T10:43:45;101508.41;;;21.77;30.39
69239;BME280;56349;51.816;-0.026;2023-04-05T10:46:10;101505.48;;;21.64;30.55
69239;BME280;56349;51.816;-0.026;2023-04-05T10:48:43;101507.09;;;21.53;30.66
69239;BME280;56349;51.816;-0.026;2023-04-05T10:51:01;101502.14;;;21.42;30.81
69239;BME280;56349;51.816;-0.026;2023-04-05T10:53:26;101498.34;;;21.32;30.95
69239;BME280;56349;51.816;-0.026;2023-04-05T10:55:52;101492.72;;;21.43;31.09
69239;BME280;56349;51.816;-0.026;2023-04-05T10:58:18;101491.83;;;21.13;31.20
69239;BME280;56349;51.816;-0.026;2023-04-05T11:00:44;101491.78;;;21.27;31.32
69239;BME280;56349;51.816;-0.026;2023-04-05T11:03:08;101493.15;;;20.97;31.43
69239;BME280;56349;51.816;-0.026;2023-04-05T11:05:35;101492.17;;;21.12;31.54
69239;BME280;56349;51.816;-0.026;2023-04-05T11:08:04;101491.98;;;21.06;31.64
69239;BME280;56349;51.816;-0.026;2023-04-05T11:10:26;101484.58;;;20.78;31.71
69239;BME280;56349;51.816;-0.026;2023-04-05T11:17:41;101481.70;;;21.10;32.01
69239;BME280;56349;51.816;-0.026;2023-04-05T11:20:11;101481.85;;;20.81;32.06
69239;BME280;56349;51.816;-0.026;2023-04-05T11:22:33;101477.83;;;21.03;32.14
69239;BME280;56349;51.816;-0.026;2023-04-05T11:25:00;101477.57;;;20.72;32.20
69239;BME280;56349;51.816;-0.026;2023-04-05T11:27:26;101477.69;;;20.66;32.29
69239;BME280;56349;51.816;-0.026;2023-04-05T11:29:51;101478.38;;;20.89;32.34
69239;BME280;56349;51.816;-0.026;2023-04-05T11:32:17;101477.15;;;20.57;32.42
69239;BME280;56349;51.816;-0.026;2023-04-05T11:34:43;101468.56;;;20.53;32.46
69239;BME280;56349;51.816;-0.026;2023-04-05T11:37:08;101463.84;;;20.77;32.52
69239;BME280;56349;51.816;-0.026;2023-04-05T11:39:33;101460.65;;;20.75;32.56
69239;BME280;56349;51.816;-0.026;2023-04-05T11:42:01;101454.33;;;20.73;32.60
69239;BME280;56349;51.816;-0.026;2023-04-05T11:44:25;101449.63;;;20.44;32.63
69239;BME280;56349;51.816;-0.026;2023-04-05T11:46:50;101448.92;;;20.67;32.71
69239;BME280;56349;51.816;-0.026;2023-04-05T11:49:16;101446.77;;;20.62;32.78
69239;BME280;56349;51.816;-0.026;2023-04-05T11:51:42;101441.89;;;20.60;32.84
69239;BME280;56349;51.816;-0.026;2023-04-05T11:54:07;101441.32;;;20.58;32.88
69239;BME280;56349;51.816;-0.026;2023-04-05T11:56:33;101433.31;;;20.57;32.90
69239;BME280;56349;51.816;-0.026;2023-04-05T11:58:58;101427.56;;;20.56;32.92
69239;BME280;56349;51.816;-0.026;2023-04-05T12:01:23;101421.04;;;20.54;32.97
69239;BME280;56349;51.816;-0.026;2023-04-05T12:03:52;101418.36;;;20.51;33.03
69239;BME280;56349;51.816;-0.026;2023-04-05T12:06:15;101415.59;;;20.48;33.09
69239;BME280;56349;51.816;-0.026;2023-04-05T12:08:42;101410.68;;;20.45;33.13
69239;BME280;56349;51.816;-0.026;2023-04-05T12:11:07;101410.69;;;20.44;33.16
69239;BME280;56349;51.816;-0.026;2023-04-05T12:13:32;101411.95;;;20.65;33.19
69239;BME280;56349;51.816;-0.026;2023-04-05T12:15:58;101413.16;;;20.43;33.20
69239;BME280;56349;51.816;-0.026;2023-04-05T12:18:24;101411.46;;;20.65;33.20
69239;BME280;56349;51.816;-0.026;2023-04-05T12:20:48;101407.66;;;20.43;33.21
69239;BME280;56349;51.816;-0.026;2023-04-05T12:23:14;101403.78;;;20.43;33.23
69239;BME280;56349;51.816;-0.026;2023-04-05T12:25:40;101404.65;;;20.43;33.24
69239;BME280;56349;51.816;-0.026;2023-04-05T12:28:06;101405.46;;;20.40;33.27
69239;BME280;56349;51.816;-0.026;2023-04-05T12:30:32;101404.26;;;20.37;33.36
69239;BME280;56349;51.816;-0.026;2023-04-05T12:32:58;101402.03;;;20.38;33.45
69239;BME280;56349;51.816;-0.026;2023-04-05T12:35:29;101403.53;;;20.40;33.51
69239;BME280;56349;51.816;-0.026;2023-04-05T12:37:50;101406.27;;;20.45;33.54
69239;BME280;56349;51.816;-0.026;2023-04-05T12:40:19;101407.89;;;20.55;33.54
69239;BME280;56349;51.816;-0.026;2023-04-05T12:42:41;101409.44;;;20.41;33.46
69239;BME280;56349;51.816;-0.026;2023-04-05T12:45:09;101406.65;;;20.81;33.40
69239;BME280;56349;51.816;-0.026;2023-04-05T12:47:33;101405.06;;;21.03;33.25